Time;durP1;ratioP1;P1;durP2;ratioP2;P2;SDS_P1;SDS_P2;PMS_P1;PMS_P2;Temp;Humidity;BMP_temperature;BMP_pressure;BME280_temperature;BME280_humidity;BME280_pressure;Samples;Min_cycle;Max_cycle;Signal;HPM_P1;HPM_P2
2024/01/29 00:01:35;;;;;;;8.40;4.45;;;;;;;;;;5067401;28;20491;-73
2024/01/29 00:04:01;;;;;;;6.60;4.22;;;;;;;;;;5090026;28;20527;-73
2024/01/29 00:06:27;;;;;;;8.55;4.30;;;;;;;;;;5076617;28;20044;-73
2024/01/29 00:08:53;;;;;;;8.38;4.55;;;;;;;;;;5083407;28;20071;-74
2024/01/29 00:11:20;;;;;;;6.88;4.47;;;;;;;;;;5075599;28;20157;-73
2024/01/29 00:13:46;;;;;;;6.97;4.88;;;;;;;;;;5083759;28;20040;-75
2024/01/29 00:16:13;;;;;;;8.10;4.55;;;;;;;;;;5076785;28;20419;-74
2024/01/29 00:18:39;;;;;;;7.75;4.68;;;;;;;;;;5072371;28;20476;-74
2024/01/29 00:21:05;;;;;;;7.20;4.50;;;;;;;;;;5079641;28;20503;-74
2024/01/29 00:23:31;;;;;;;8.05;4.65;;;;;;;;;;5087212;28;20372;-74
2024/01/29 00:25:57;;;;;;;9.15;4.88;;;;;;;;;;5081137;28;20060;-74
2024/01/29 00:28:24;;;;;;;7.32;4.43;;;;;;;;;;5076833;28;20056;-74
2024/01/29 00:30:50;;;;;;;10.35;4.30;;;;;;;;;;5083219;28;20053;-74
2024/01/29 00:33:17;;;;;;;8.88;4.53;;;;;;;;;;5071640;28;20044;-74
2024/01/29 00:35:43;;;;;;;7.32;4.60;;;;;;;;;;5071328;28;20045;-74
2024/01/29 00:38:09;;;;;;;9.30;4.68;;;;;;;;;;5056011;28;20086;-74
2024/01/29 00:40:37;;;;;;;6.72;4.22;;;;;;;;;;5071086;28;20100;-75
2024/01/29 00:43:03;;;;;;;8.05;4.47;;;;;;;;;;5072648;28;20044;-74
2024/01/29 00:45:29;;;;;;;5.88;4.45;;;;;;;;;;5071329;28;20067;-74
2024/01/29 00:47:56;;;;;;;5.93;4.57;;;;;;;;;;5072954;28;20041;-74
2024/01/29 00:50:22;;;;;;;7.20;4.63;;;;;;;;;;5073455;28;20080;-74
2024/01/29 00:52:48;;;;;;;8.80;4.57;;;;;;;;;;5071171;28;20044;-74
2024/01/29 00:55:14;;;;;;;7.30;4.47;;;;;;;;;;5071656;28;20097;-74
2024/01/29 00:57:40;;;;;;;6.85;4.90;;;;;;;;;;5072280;28;20040;-74
2024/01/29 01:00:07;;;;;;;7.63;4.97;;;;;;;;;;5073110;28;20044;-74
2024/01/29 01:02:33;;;;;;;6.80;4.65;;;;;;;;;;5088816;28;20044;-74
2024/01/29 01:04:59;;;;;;;7.97;4.55;;;;;;;;;;5072726;28;20040;-74
2024/01/29 01:07:26;;;;;;;8.20;4.57;;;;;;;;;;5079792;28;20061;-74
2024/01/29 01:09:52;;;;;;;8.80;5.30;;;;;;;;;;5056044;28;20361;-74
2024/01/29 01:12:18;;;;;;;7.25;5.13;;;;;;;;;;5077737;28;20048;-74
2024/01/29 01:14:44;;;;;;;9.82;5.07;;;;;;;;;;5054385;28;20036;-74
2024/01/29 01:17:10;;;;;;;8.98;4.95;;;;;;;;;;5071161;28;20059;-74
2024/01/29 01:19:36;;;;;;;6.90;4.40;;;;;;;;;;5071391;28;20032;-74
2024/01/29 01:22:02;;;;;;;9.02;4.75;;;;;;;;;;5072488;28;20044;-74
2024/01/29 01:24:28;;;;;;;7.13;4.65;;;;;;;;;;5077059;28;20051;-74
2024/01/29 01:26:54;;;;;;;6.68;4.35;;;;;;;;;;5070841;28;20044;-74
2024/01/29 01:29:20;;;;;;;8.50;5.25;;;;;;;;;;5076658;28;20044;-74
2024/01/29 01:31:46;;;;;;;6.72;4.35;;;;;;;;;;5090337;28;20043;-74
2024/01/29 01:34:13;;;;;;;7.85;4.97;;;;;;;;;;5074750;28;20372;-74
2024/01/29 01:36:39;;;;;;;7.15;4.70;;;;;;;;;;5074555;28;20040;-74
2024/01/29 01:39:05;;;;;;;7.70;4.88;;;;;;;;;;5075377;28;20040;-74
2024/01/29 01:41:31;;;;;;;7.20;4.75;;;;;;;;;;5062506;28;20036;-74
2024/01/29 01:43:57;;;;;;;7.53;4.85;;;;;;;;;;5077319;28;20104;-74
2024/01/29 01:46:23;;;;;;;8.02;5.05;;;;;;;;;;5091378;28;20059;-74
2024/01/29 01:48:54;;;;;;;6.97;4.35;;;4.40;99.90;;;;;;5072311;28;20041;-74
2024/01/29 01:51:21;;;;;;;6.57;4.65;;;;;;;;;;5074548;28;20391;-74
2024/01/29 01:53:49;;;;;;;6.72;4.72;;;;;;;;;;5081951;28;20044;-74
2024/01/29 01:56:15;;;;;;;8.65;4.72;;;;;;;;;;5089340;28;20052;-74
2024/01/29 01:58:42;;;;;;;9.23;5.03;;;;;;;;;;5079067;28;20435;-74
2024/01/29 02:01:08;;;;;;;7.25;4.65;;;;;;;;;;5074035;28;20037;-74
2024/01/29 02:03:34;;;;;;;6.88;4.68;;;;;;;;;;5075112;28;20044;-74
2024/01/29 02:06:00;;;;;;;8.68;5.28;;;;;;;;;;5073907;28;20142;-74
2024/01/29 02:08:27;;;;;;;5.97;4.55;;;;;;;;;;5068075;28;20036;-74
2024/01/29 02:10:54;;;;;;;10.57;5.32;;;;;;;;;;5074040;28;20095;-74
2024/01/29 02:13:20;;;;;;;8.90;5.43;;;;;;;;;;5091864;28;20065;-74
2024/01/29 02:15:46;;;;;;;7.63;5.10;;;;;;;;;;5090432;28;20116;-74
2024/01/29 02:18:13;;;;;;;8.15;5.45;;;;;;;;;;5091996;28;20036;-74
2024/01/29 02:20:39;;;;;;;11.18;5.20;;;;;;;;;;5076192;28;20075;-74
2024/01/29 02:23:05;;;;;;;11.82;5.07;;;;;;;;;;5080140;28;20058;-74
2024/01/29 02:25:31;;;;;;;9.10;4.78;;;;;;;;;;5084606;28;20052;-74
2024/01/29 02:27:57;;;;;;;8.60;5.22;;;;;;;;;;5090370;28;20400;-74
2024/01/29 02:30:23;;;;;;;7.22;4.95;;;;;;;;;;5082101;28;20113;-74
2024/01/29 02:32:49;;;;;;;7.57;5.07;;;;;;;;;;5090204;28;20075;-74
2024/01/29 02:35:15;;;;;;;8.75;5.22;;;;;;;;;;5088485;28;20035;-74
2024/01/29 02:37:41;;;;;;;7.30;5.00;;;;;;;;;;5091591;28;20039;-74
2024/01/29 02:40:07;;;;;;;8.38;5.60;;;;;;;;;;5085333;28;20041;-74
2024/01/29 02:42:34;;;;;;;7.03;5.10;;;;;;;;;;5080437;28;20036;-74
2024/01/29 02:45:00;;;;;;;7.13;5.03;;;;;;;;;;5088381;28;20036;-74
2024/01/29 02:47:26;;;;;;;7.07;5.30;;;;;;;;;;5084684;28;20039;-74
2024/01/29 02:49:52;;;;;;;8.13;5.03;;;;;;;;;;5072770;28;20048;-74
2024/01/29 02:52:19;;;;;;;8.82;4.95;;;;;;;;;;5083135;28;20055;-73
2024/01/29 02:54:45;;;;;;;6.93;5.20;;;;;;;;;;5091719;28;20388;-74
2024/01/29 02:57:11;;;;;;;7.75;5.25;;;;;;;;;;5075333;28;20032;-74
2024/01/29 02:59:37;;;;;;;8.23;5.63;;;;;;;;;;5080550;28;20460;-74
2024/01/29 03:02:03;;;;;;;8.07;5.28;;;;;;;;;;5077259;28;20079;-74
2024/01/29 03:04:30;;;;;;;7.82;4.65;;;;;;;;;;5073055;28;20087;-74
2024/01/29 03:06:56;;;;;;;8.63;5.35;;;;;;;;;;5066239;28;20511;-74
2024/01/29 03:09:22;;;;;;;9.55;5.35;;;;;;;;;;5074118;28;20037;-74
2024/01/29 03:11:48;;;;;;;8.60;4.80;;;;;;;;;;5076980;28;20040;-74
2024/01/29 03:14:14;;;;;;;9.30;6.05;;;;;;;;;;5090853;28;20044;-74
2024/01/29 03:16:40;;;;;;;7.88;4.72;;;;;;;;;;5082758;28;20036;-74
2024/01/29 03:19:07;;;;;;;12.38;6.03;;;;;;;;;;5072641;28;20496;-74
2024/01/29 03:21:33;;;;;;;8.80;5.40;;;;;;;;;;5086452;28;20076;-74
2024/01/29 03:24:00;;;;;;;11.85;5.65;;;;;;;;;;5079838;28;20043;-74
2024/01/29 03:26:26;;;;;;;11.15;5.32;;;;;;;;;;5079282;28;20045;-74
2024/01/29 03:28:52;;;;;;;8.75;5.55;;;;;;;;;;5078552;28;20126;-74
2024/01/29 03:31:18;;;;;;;7.43;5.35;;;;;;;;;;5069925;28;20493;-74
2024/01/29 03:33:44;;;;;;;11.10;6.15;;;;;;;;;;5072171;28;20389;-73
2024/01/29 03:36:10;;;;;;;8.43;5.90;;;;;;;;;;5056081;28;20036;-74
2024/01/29 03:38:36;;;;;;;7.47;5.47;;;;;;;;;;5055603;28;20028;-74
2024/01/29 03:41:02;;;;;;;10.80;5.55;;;;;;;;;;5055561;28;20075;-74
2024/01/29 03:43:28;;;;;;;10.52;5.65;;;;;;;;;;5084672;28;20093;-74
2024/01/29 03:45:54;;;;;;;11.13;5.38;;;;;;;;;;5056862;28;20039;-74
2024/01/29 03:48:21;;;;;;;9.25;5.65;;;;;;;;;;5074411;28;20044;-74
2024/01/29 03:50:47;;;;;;;7.30;5.47;;;;;;;;;;5088854;28;20102;-74
2024/01/29 03:53:13;;;;;;;7.63;5.82;;;;;;;;;;5071829;28;20484;-74
2024/01/29 03:55:39;;;;;;;7.97;5.20;;;;;;;;;;5072693;28;20119;-74
2024/01/29 03:58:05;;;;;;;8.38;5.75;;;;;;;;;;5072702;28;20392;-74
2024/01/29 04:00:32;;;;;;;11.48;5.65;;;;;;;;;;5063769;28;20056;-74
2024/01/29 04:02:59;;;;;;;9.60;6.18;;;;;;;;;;5086913;28;20051;-74
2024/01/29 04:05:25;;;;;;;9.25;5.40;;;;;;;;;;5072051;28;20040;-74
2024/01/29 04:07:51;;;;;;;8.50;5.45;;;3.90;99.90;;;;;;5071428;28;20073;-74
2024/01/29 04:10:17;;;;;;;8.65;5.68;;;;;;;;;;5073193;28;20086;-74
2024/01/29 04:12:43;;;;;;;9.10;5.80;;;;;;;;;;5055808;28;20076;-74
2024/01/29 04:15:10;;;;;;;7.30;5.60;;;;;;;;;;5086550;28;20079;-74
2024/01/29 04:17:36;;;;;;;7.70;5.20;;;;;;;;;;5071708;28;20036;-74
2024/01/29 04:20:06;;;;;;;8.60;5.65;;;;;;;;;;5072519;28;20036;-74
2024/01/29 04:22:32;;;;;;;11.98;6.47;;;;;;;;;;5081880;28;20044;-74
2024/01/29 04:25:04;;;;;;;11.90;5.82;;;4.00;99.90;;;;;;5072522;28;20178;-73
2024/01/29 04:27:31;;;;;;;10.02;5.53;;;;;;;;;;5096030;28;20036;-74
2024/01/29 04:29:57;;;;;;;9.80;5.40;;;;;;;;;;5054749;28;20033;-74
2024/01/29 04:32:23;;;;;;;9.60;6.00;;;;;;;;;;5071713;28;20036;-74
2024/01/29 04:34:49;;;;;;;7.97;6.10;;;;;;;;;;5057607;28;20218;-74
2024/01/29 04:37:15;;;;;;;8.43;5.90;;;2.90;99.90;;;;;;5057727;28;20060;-74
2024/01/29 04:39:41;;;;;;;9.95;6.13;;;;;;;;;;5071678;28;20071;-74
2024/01/29 04:42:08;;;;;;;7.10;5.80;;;;;;;;;;5071547;28;20037;-74
2024/01/29 04:44:34;;;;;;;10.05;5.78;;;;;;;;;;5074207;28;20055;-73
2024/01/29 04:47:00;;;;;;;8.40;5.93;;;;;;;;;;5084442;28;20036;-74
2024/01/29 04:49:26;;;;;;;7.82;5.80;;;;;;;;;;5078077;28;20480;-74
2024/01/29 04:51:52;;;;;;;7.97;5.35;;;;;;;;;;5090932;28;20036;-74
2024/01/29 04:54:18;;;;;;;9.40;5.68;;;;;;;;;;5086612;28;20036;-74
2024/01/29 04:56:44;;;;;;;9.20;6.20;;;;;;;;;;5070126;28;20036;-74
2024/01/29 04:59:10;;;;;;;8.93;5.47;;;;;;;;;;5071354;28;20033;-74
2024/01/29 05:01:36;;;;;;;8.40;5.72;;;;;;;;;;5064977;28;20472;-74
2024/01/29 05:04:03;;;;;;;8.23;5.40;;;;;;;;;;5075431;28;20044;-74
2024/01/29 05:06:29;;;;;;;12.07;5.60;;;;;;;;;;5067635;28;20037;-74
2024/01/29 05:08:55;;;;;;;9.18;5.97;;;;;;;;;;5076018;28;20037;-74
2024/01/29 05:11:21;;;;;;;9.23;5.55;;;;;;;;;;5076071;28;20366;-74
2024/01/29 05:13:48;;;;;;;8.35;5.90;;;;;;;;;;5058368;28;20139;-74
2024/01/29 05:16:15;;;;;;;10.05;5.97;;;;;;;;;;5076750;28;20033;-74
2024/01/29 05:18:41;;;;;;;10.48;6.45;;;;;;;;;;5074915;28;20036;-74
2024/01/29 05:21:08;;;;;;;9.68;5.90;;;;;;;;;;5074983;28;20090;-73
2024/01/29 05:23:34;;;;;;;10.57;6.22;;;;;;;;;;5074790;28;20123;-74
2024/01/29 05:26:00;;;;;;;9.45;6.10;;;;;;;;;;5076095;28;20162;-74
2024/01/29 05:28:26;;;;;;;9.02;6.18;;;;;;;;;;5074652;28;20044;-74
2024/01/29 05:30:52;;;;;;;8.75;5.80;;;;;;;;;;5074684;28;20124;-74
2024/01/29 05:33:18;;;;;;;9.18;6.10;;;;;;;;;;5057839;28;20481;-73
2024/01/29 05:35:44;;;;;;;10.65;6.35;;;;;;;;;;5075208;28;20044;-73
2024/01/29 05:38:10;;;;;;;9.48;5.93;;;;;;;;;;5086171;28;20040;-73
2024/01/29 05:40:37;;;;;;;7.97;5.78;;;;;;;;;;5091369;28;20127;-73
2024/01/29 05:43:03;;;;;;;8.55;6.35;;;;;;;;;;5091876;28;20035;-73
2024/01/29 05:45:29;;;;;;;11.15;6.60;;;;;;;;;;5074629;28;20169;-73
2024/01/29 05:47:55;;;;;;;9.95;6.30;;;;;;;;;;5092234;28;20056;-73
2024/01/29 05:50:21;;;;;;;10.02;6.75;;;;;;;;;;5079727;28;20122;-75
2024/01/29 05:52:47;;;;;;;9.95;6.72;;;;;;;;;;5074052;28;20044;-75
2024/01/29 05:55:13;;;;;;;10.48;6.45;;;;;;;;;;5084199;28;20036;-75
2024/01/29 05:57:39;;;;;;;11.43;6.50;;;;;;;;;;5064750;28;20491;-75
2024/01/29 06:00:09;;;;;;;10.15;6.45;;;2.90;99.90;;;;;;5074125;28;20036;-75
2024/01/29 06:02:42;;;;;;;8.05;6.30;;;3.90;99.90;;;;;;5075386;28;20432;-75
2024/01/29 06:05:08;;;;;;;9.40;6.13;;;;;;;;;;5073786;28;20047;-75
2024/01/29 06:07:34;;;;;;;9.52;6.38;;;;;;;;;;5085075;28;20028;-75
2024/01/29 06:10:00;;;;;;;8.10;6.25;;;;;;;;;;5085450;28;20040;-75
2024/01/29 06:12:26;;;;;;;11.75;6.85;;;;;;;;;;5079391;28;20028;-75
2024/01/29 06:14:53;;;;;;;11.70;7.03;;;;;;;;;;5090156;28;20044;-73
2024/01/29 06:17:19;;;;;;;9.25;6.28;;;;;;;;;;5092016;28;20042;-74
2024/01/29 06:19:45;;;;;;;10.02;6.85;;;;;;;;;;5090062;28;20178;-74
2024/01/29 06:22:11;;;;;;;9.93;6.75;;;;;;;;;;5070524;28;20036;-73
2024/01/29 06:24:37;;;;;;;10.45;6.97;;;;;;;;;;5091368;28;20054;-74
2024/01/29 06:27:03;;;;;;;9.70;6.53;;;;;;;;;;5060091;28;20388;-74
2024/01/29 06:29:29;;;;;;;10.45;7.25;;;;;;;;;;5089944;28;20040;-74
2024/01/29 06:31:55;;;;;;;14.30;7.78;;;;;;;;;;5077084;28;20059;-73
2024/01/29 06:34:23;;;;;;;8.07;6.38;;;;;;;;;;5093485;28;20040;-73
2024/01/29 06:36:52;;;;;;;10.35;6.50;;;;;;;;;;5065565;28;20472;-73
2024/01/29 06:39:18;;;;;;;9.20;6.80;;;;;;;;;;5080282;28;20036;-73
2024/01/29 06:41:44;;;;;;;11.98;6.75;;;;;;;;;;5081773;28;20366;-74
2024/01/29 06:44:10;;;;;;;11.63;7.00;;;;;;;;;;5065719;28;20051;-73
2024/01/29 06:46:36;;;;;;;10.60;7.25;;;4.80;99.90;;;;;;5081352;28;20403;-73
2024/01/29 06:49:02;;;;;;;9.50;7.43;;;;;;;;;;5057249;28;20093;-73
2024/01/29 06:51:29;;;;;;;10.45;7.07;;;;;;;;;;5077889;28;20036;-73
2024/01/29 06:53:57;;;;;;;11.23;7.13;;;;;;;;;;5076249;28;20123;-73
2024/01/29 06:56:23;;;;;;;10.70;7.35;;;;;;;;;;5076743;28;20067;-73
2024/01/29 06:58:49;;;;;;;10.13;7.03;;;;;;;;;;5082324;28;20042;-73
2024/01/29 07:01:21;;;;;;;10.95;7.95;;;;;;;;;;5063489;28;20047;-73
2024/01/29 07:03:48;;;;;;;11.25;7.43;;;;;;;;;;5074668;28;20497;-73
2024/01/29 07:06:14;;;;;;;11.45;7.68;;;;;;;;;;5079011;28;20048;-73
2024/01/29 07:08:40;;;;;;;15.32;7.80;;;;;;;;;;5072240;28;20115;-73
2024/01/29 07:11:06;;;;;;;10.88;7.45;;;;;;;;;;5077428;28;20503;-73
2024/01/29 07:13:32;;;;;;;12.90;7.47;;;;;;;;;;5079664;28;20045;-73
2024/01/29 07:15:59;;;;;;;10.15;7.25;;;;;;;;;;5071959;28;20028;-73
2024/01/29 07:18:25;;;;;;;13.90;7.78;;;;;;;;;;5071928;28;20036;-73
2024/01/29 07:20:51;;;;;;;10.90;7.25;;;;;;;;;;5072260;28;20053;-73
2024/01/29 07:23:17;;;;;;;9.70;7.15;;;;;;;;;;5077444;28;20040;-73
2024/01/29 07:25:44;;;;;;;11.52;7.68;;;;;;;;;;5074397;28;20168;-74
2024/01/29 07:28:10;;;;;;;10.07;7.60;;;;;;;;;;5054425;28;21768;-72
2024/01/29 07:30:36;;;;;;;11.80;8.02;;;;;;;;;;5071552;28;20456;-72
2024/01/29 07:33:02;;;;;;;11.95;8.02;;;;;;;;;;5070415;28;20047;-72
2024/01/29 07:35:28;;;;;;;11.70;7.85;;;;;;;;;;5072093;28;20048;-72
2024/01/29 07:37:55;;;;;;;10.20;8.18;;;;;;;;;;5076641;28;20036;-72
2024/01/29 07:40:21;;;;;;;13.23;8.02;;;;;;;;;;5081008;28;20521;-72
2024/01/29 07:42:47;;;;;;;11.15;8.13;;;;;;;;;;5058931;28;20044;-72
2024/01/29 07:45:14;;;;;;;15.20;8.65;;;;;;;;;;5073000;28;20093;-72
2024/01/29 07:47:40;;;;;;;12.35;7.75;;;;;;;;;;5038788;28;20390;-73
2024/01/29 07:50:06;;;;;;;14.20;8.35;;;4.80;99.90;;;;;;5071938;28;20040;-72
2024/01/29 07:52:35;;;;;;;13.45;8.10;;;;;;;;;;5073485;28;20130;-72
2024/01/29 07:55:01;;;;;;;11.23;8.18;;;;;;;;;;5080429;28;20064;-71
2024/01/29 07:57:27;;;;;;;14.85;8.10;;;;;;;;;;5068258;28;20123;-72
2024/01/29 07:59:53;;;;;;;14.35;8.20;;;;;;;;;;5079846;28;20482;-72
2024/01/29 08:02:19;;;;;;;11.50;7.80;;;;;;;;;;5082810;28;20058;-73
2024/01/29 08:04:45;;;;;;;14.10;8.43;;;;;;;;;;5074378;28;20040;-73
2024/01/29 08:07:12;;;;;;;13.80;8.02;;;;;;;;;;5070747;28;20056;-72
2024/01/29 08:09:38;;;;;;;11.50;8.48;;;;;;;;;;5069680;28;20032;-72
2024/01/29 08:12:05;;;;;;;12.52;9.02;;;;;;;;;;5060301;28;20074;-72
2024/01/29 08:14:31;;;;;;;13.25;8.40;;;;;;;;;;5075677;28;20091;-72
2024/01/29 08:16:57;;;;;;;12.57;7.93;;;;;;;;;;5071683;28;20106;-72
2024/01/29 08:19:23;;;;;;;14.18;8.00;;;;;;;;;;5071416;28;20119;-72
2024/01/29 08:21:49;;;;;;;12.68;8.70;;;;;;;;;;5079897;28;20037;-72
2024/01/29 08:24:15;;;;;;;11.70;8.07;;;;;;;;;;5078380;28;20080;-72
2024/01/29 08:26:41;;;;;;;11.80;8.18;;;;;;;;;;5072546;28;20139;-73
2024/01/29 08:29:08;;;;;;;10.88;8.15;;;;;;;;;;5070788;28;20476;-72
2024/01/29 08:31:34;;;;;;;15.10;8.20;;;;;;;;;;5072724;28;20033;-73
2024/01/29 08:34:00;;;;;;;12.23;7.97;;;;;;;;;;5070853;28;20071;-72
2024/01/29 08:36:26;;;;;;;12.13;8.30;;;;;;;;;;5076986;28;20040;-72
2024/01/29 08:38:52;;;;;;;11.35;8.25;;;;;;;;;;5077295;28;20042;-72
2024/01/29 08:41:18;;;;;;;12.32;8.38;;;;;;;;;;5079963;28;20043;-73
2024/01/29 08:43:44;;;;;;;10.73;8.25;;;;;;;;;;5059813;28;20040;-74
2024/01/29 08:46:10;;;;;;;14.18;8.68;;;;;;;;;;5078111;28;20397;-72
2024/01/29 08:48:36;;;;;;;11.45;8.20;;;;;;;;;;5075459;28;20080;-72
2024/01/29 08:51:02;;;;;;;12.15;8.43;;;;;;;;;;5075162;28;20047;-71
2024/01/29 08:53:28;;;;;;;14.77;8.48;;;;;;;;;;5075080;28;20508;-72
2024/01/29 08:55:55;;;;;;;13.65;8.00;;;;;;;;;;5075082;28;20080;-72
2024/01/29 08:58:21;;;;;;;14.43;8.52;;;;;;;;;;5075101;28;20041;-72
2024/01/29 09:00:52;;;;;;;15.15;9.13;;;;;;;;;;5075071;28;20445;-72
2024/01/29 09:03:18;;;;;;;11.10;7.85;;;;;;;;;;5074925;28;20055;-72
2024/01/29 09:05:44;;;;;;;12.82;7.80;;;;;;;;;;5074907;28;20037;-72
2024/01/29 09:08:10;;;;;;;12.55;8.30;;;;;;;;;;5074862;28;20040;-72
2024/01/29 09:10:36;;;;;;;13.23;7.88;;;;;;;;;;5074671;28;20098;-72
2024/01/29 09:13:03;;;;;;;14.18;9.07;;;;;;;;;;5058042;28;20041;-71
2024/01/29 09:15:29;;;;;;;12.13;8.40;;;;;;;;;;5058399;28;20040;-71
2024/01/29 09:17:55;;;;;;;13.02;9.05;;;;;;;;;;5058084;28;20041;-72
2024/01/29 09:20:22;;;;;;;13.18;8.30;;;;;;;;;;5074669;28;20044;-72
2024/01/29 09:22:48;;;;;;;13.65;8.40;;;;;;;;;;5074852;28;20048;-72
2024/01/29 09:25:14;;;;;;;12.25;8.80;;;;;;;;;;5074459;28;20056;-72
2024/01/29 09:27:40;;;;;;;10.48;8.00;;;;;;;;;;5074738;28;20163;-71
2024/01/29 09:30:07;;;;;;;12.25;8.23;;;;;;;;;;5074806;28;20028;-71
2024/01/29 09:32:33;;;;;;;13.32;8.65;;;;;;;;;;5074424;28;20481;-71
2024/01/29 09:34:59;;;;;;;11.38;8.40;;;;;;;;;;5075752;28;20077;-71
2024/01/29 09:37:25;;;;;;;13.30;9.00;;;;;;;;;;5074294;28;20077;-71
2024/01/29 09:39:53;;;;;;;13.63;8.55;;;;;;;;;;5074243;28;20046;-71
2024/01/29 09:42:19;;;;;;;13.38;8.80;;;;;;;;;;5074282;28;20123;-71
2024/01/29 09:44:47;;;;;;;13.48;9.00;;;;;;;;;;5074262;28;20046;-72
2024/01/29 09:47:14;;;;;;;12.85;8.43;;;;;;;;;;5074036;28;20083;-72
2024/01/29 09:49:42;;;;;;;15.07;8.90;;;5.40;99.90;;;;;;5075193;28;20032;-72
2024/01/29 09:52:13;;;;;;;13.68;8.60;;;5.30;99.90;;;;;;5074034;28;20045;-72
2024/01/29 09:54:40;;;;;;;15.18;9.50;;;;;;;;;;5074024;28;20040;-72
2024/01/29 09:57:06;;;;;;;14.68;8.77;;;;;;;;;;5074326;28;20404;-72
2024/01/29 09:59:32;;;;;;;13.20;9.05;;;;;;;;;;5073798;28;20519;-72
2024/01/29 10:02:00;;;;;;;14.25;8.68;;;;;;;;;;5074301;28;20048;-72
2024/01/29 10:04:26;;;;;;;13.52;8.43;;;;;;;;;;5073819;28;20072;-72
2024/01/29 10:06:52;;;;;;;13.70;9.23;;;;;;;;;;5073672;28;20507;-72
2024/01/29 10:09:19;;;;;;;13.65;9.02;;;;;;;;;;5073785;28;20040;-72
2024/01/29 10:11:46;;;;;;;11.95;9.18;;;;;;;;;;5073881;28;20385;-72
2024/01/29 10:14:12;;;;;;;12.90;9.40;;;;;;;;;;5056909;28;20044;-71
2024/01/29 10:16:38;;;;;;;14.30;9.50;;;;;;;;;;5073635;28;20051;-72
2024/01/29 10:19:05;;;;;;;13.60;9.32;;;;;;;;;;5074984;28;20032;-72
2024/01/29 10:21:38;;;;;;;13.45;8.43;;;;;;;;;;5073494;28;20032;-72
2024/01/29 10:24:04;;;;;;;12.65;9.13;;;;;;;;;;5073804;28;20048;-72
2024/01/29 10:26:30;;;;;;;12.70;9.10;;;;;;;;;;5056720;28;20125;-72
2024/01/29 10:29:02;;;;;;;13.10;9.80;;;;;;;;;;5074416;28;20083;-72
2024/01/29 10:31:29;;;;;;;14.45;9.15;;;;;;;;;;5071993;28;20047;-72
2024/01/29 10:33:55;;;;;;;14.07;9.45;;;;;;;;;;5074932;28;20040;-72
2024/01/29 10:36:21;;;;;;;13.23;10.05;;;;;;;;;;5069516;28;20047;-73
2024/01/29 10:38:48;;;;;;;15.65;10.45;;;;;;;;;;5072858;28;20040;-72
2024/01/29 10:41:20;;;;;;;14.18;10.40;;;6.00;99.90;;;;;;5073515;28;20044;-72
2024/01/29 10:43:53;;;;;;;13.82;9.50;;;5.70;99.90;;;;;;5074318;28;20051;-72
2024/01/29 10:46:20;;;;;;;15.93;9.75;;;;;;;;;;5058130;28;20044;-72
2024/01/29 10:48:47;;;;;;;15.18;10.57;;;;;;;;;;5076619;28;20040;-72
2024/01/29 10:51:14;;;;;;;25.42;10.93;;;;;;;;;;5068714;28;20062;-72
2024/01/29 10:53:43;;;;;;;22.35;11.50;;;;;;;;;;5073881;28;20101;-72
2024/01/29 10:56:10;;;;;;;29.98;12.27;;;;;;;;;;5076830;28;20036;-72
2024/01/29 10:58:37;;;;;;;30.63;12.38;;;;;;;;;;5073942;28;20089;-72
2024/01/29 11:01:04;;;;;;;33.08;12.38;;;;;;;;;;5072219;28;20116;-72
2024/01/29 11:03:31;;;;;;;30.52;12.35;;;;;;;;;;5072504;28;20182;-73
2024/01/29 11:06:04;;;;;;;23.80;11.52;;;;;;;;;;5057746;28;20083;-72
2024/01/29 11:08:32;;;;;;;22.20;10.77;;;;;;;;;;5072451;28;20048;-73
2024/01/29 11:11:00;;;;;;;24.95;11.77;;;6.40;99.90;;;;;;5071837;28;20048;-73
2024/01/29 11:13:28;;;;;;;24.85;11.90;;;6.40;99.90;;;;;;5076058;28;20048;-72
2024/01/29 11:15:54;;;;;;;31.70;13.43;;;;;;;;;;5055850;28;20048;-72
2024/01/29 11:18:20;;;;;;;23.88;12.27;;;;;;;;;;5071669;28;20425;-73
2024/01/29 11:20:50;;;;;;;28.70;12.20;;;;;;;;;;5076145;28;20071;-72
2024/01/29 11:23:16;;;;;;;26.77;12.00;;;;;;;;;;5058911;28;20042;-72
2024/01/29 11:25:42;;;;;;;28.48;13.18;;;;;;;;;;5073275;28;20102;-72
2024/01/29 11:28:10;;;;;;;29.15;12.45;;;;;;;;;;5071801;28;20091;-72
2024/01/29 11:30:39;;;;;;;31.45;12.43;;;;;;;;;;5072211;28;20128;-72
2024/01/29 11:33:16;;;;;;;34.78;13.07;;;;;;;;;;5057993;28;20080;-72
2024/01/29 11:35:42;;;;;;;29.63;12.13;;;6.70;99.90;;;;;;5068422;28;20046;-72
2024/01/29 11:38:09;;;;;;;35.30;13.35;;;;;;;;;;5071754;28;20072;-72
2024/01/29 11:40:40;;;;;;;50.17;15.40;;;;;;;;;;5062858;28;20557;-76
2024/01/29 11:43:15;;;;;;;45.53;14.52;;;6.80;99.90;;;;;;5073735;28;20040;-73
2024/01/29 11:45:41;;;;;;;49.47;15.88;;;6.60;99.90;;;;;;5055853;28;20036;-73
2024/01/29 11:48:14;;;;;;;48.42;15.43;;;;;;;;;;5091401;28;20551;-72
2024/01/29 11:50:44;;;;;;;48.15;16.00;;;6.60;99.90;;;;;;5075005;28;20075;-72
2024/01/29 11:53:11;;;;;;;42.45;16.05;;;6.50;99.90;;;;;;5072014;28;20045;-72
2024/01/29 11:55:38;;;;;;;43.30;14.90;;;;;;;;;;5059914;28;20105;-72
2024/01/29 11:58:04;;;;;;;48.85;15.70;;;;;;;;;;5082328;28;20463;-72
2024/01/29 12:00:30;;;;;;;47.33;15.23;;;;;;;;;;5074359;28;20084;-72
2024/01/29 12:02:56;;;;;;;40.80;15.38;;;;;;;;;;5055225;28;20045;-72
2024/01/29 12:05:22;;;;;;;34.70;12.82;;;;;;;;;;5077483;28;20375;-72
2024/01/29 12:07:48;;;;;;;26.92;12.45;;;;;;;;;;5062532;28;20094;-72
2024/01/29 12:10:15;;;;;;;35.67;14.02;;;;;;;;;;5064023;28;20385;-73
2024/01/29 12:12:41;;;;;;;44.80;14.60;;;;;;;;;;5073705;28;20498;-73
2024/01/29 12:15:09;;;;;;;33.67;13.50;;;;;;;;;;5057744;28;20568;-72
2024/01/29 12:17:40;;;;;;;36.95;13.40;;;;;;;;;;5070324;28;20163;-72
2024/01/29 12:20:08;;;;;;;35.15;13.57;;;;;;;;;;5070218;28;20179;-72
2024/01/29 12:22:34;;;;;;;31.27;12.73;;;;;;;;;;5087552;28;20040;-72
2024/01/29 12:25:01;;;;;;;25.65;12.77;;;;;;;;;;5064931;28;20131;-72
2024/01/29 12:27:27;;;;;;;28.35;13.40;;;;;;;;;;5070168;28;20048;-73
2024/01/29 12:29:54;;;;;;;22.98;11.70;;;;;;;;;;5069238;28;20048;-72
2024/01/29 12:32:20;;;;;;;20.10;11.43;;;;;;;;;;5079942;28;20044;-72
2024/01/29 12:34:50;;;;;;;19.38;11.18;;;;;;;;;;5073258;28;20127;-72
2024/01/29 12:37:23;;;;;;;19.17;11.15;;;;;;;;;;5072262;28;20033;-72
2024/01/29 12:39:56;;;;;;;16.33;11.40;;;7.10;99.90;;;;;;5076118;28;20043;-72
2024/01/29 12:42:23;;;;;;;17.85;10.65;;;;;;;;;;5088838;28;20392;-72
2024/01/29 12:44:50;;;;;;;15.90;10.98;;;;;;;;;;5100687;28;20043;-72
2024/01/29 12:47:18;;;;;;;21.58;11.43;;;6.90;99.90;;;;;;5077922;28;20195;-72
2024/01/29 12:49:46;;;;;;;19.15;11.77;;;7.10;99.90;;;;;;5072676;28;20047;-72
2024/01/29 12:52:13;;;;;;;15.98;10.20;;;;;;;;;;5055872;28;20502;-72
2024/01/29 12:54:39;;;;;;;19.08;11.18;;;;;;;;;;5081416;28;20075;-72
2024/01/29 12:57:07;;;;;;;16.85;11.27;;;;;;;;;;5078438;28;20499;-72
2024/01/29 12:59:33;;;;;;;15.35;10.50;;;;;;;;;;5077231;28;20424;-72
2024/01/29 13:02:00;;;;;;;16.50;11.02;;;;;;;;;;5073942;28;20047;-72
2024/01/29 13:04:26;;;;;;;16.08;11.20;;;;;;;;;;5072305;28;20389;-72
2024/01/29 13:06:52;;;;;;;15.55;11.02;;;;;;;;;;5075160;28;20527;-72
2024/01/29 13:09:18;;;;;;;17.08;11.00;;;;;;;;;;5082996;28;20043;-72
2024/01/29 13:11:44;;;;;;;19.15;10.63;;;;;;;;;;5070245;28;20085;-72
2024/01/29 13:14:12;;;;;;;16.13;10.43;;;;;;;;;;5086923;28;20119;-72
2024/01/29 13:16:38;;;;;;;14.63;10.75;;;;;;;;;;5068752;28;20037;-73
2024/01/29 13:19:07;;;;;;;16.77;11.57;;;7.40;99.90;;;;;;5073642;28;20055;-72
2024/01/29 13:21:34;;;;;;;20.05;11.45;;;;;;;;;;5070703;28;20036;-72
2024/01/29 13:24:01;;;;;;;14.88;10.75;;;;;;;;;;5072078;28;20048;-72
2024/01/29 13:26:29;;;;;;;15.40;12.02;;;;;;;;;;5091703;28;20044;-73
2024/01/29 13:28:58;;;;;;;16.02;11.75;;;;;;;;;;5087941;28;20044;-73
2024/01/29 13:31:24;;;;;;;15.38;11.32;;;;;;;;;;5071959;28;20033;-73
2024/01/29 13:33:50;;;;;;;17.70;11.40;;;;;;;;;;5077505;28;20052;-73
2024/01/29 13:36:17;;;;;;;17.58;11.32;;;;;;;;;;5074625;28;20044;-72
2024/01/29 13:38:43;;;;;;;20.02;11.35;;;;;;;;;;5068995;28;20105;-72
2024/01/29 13:41:10;;;;;;;18.20;11.50;;;;;;;;;;5092966;28;20032;-72
2024/01/29 13:43:36;;;;;;;16.60;11.43;;;;;;;;;;5065576;28;20469;-72
2024/01/29 13:46:02;;;;;;;16.70;11.25;;;;;;;;;;5075364;28;20032;-72
2024/01/29 13:48:29;;;;;;;16.30;11.80;;;;;;;;;;5060589;28;20472;-72
2024/01/29 13:50:55;;;;;;;17.38;12.02;;;;;;;;;;5092518;28;20040;-72
2024/01/29 13:53:21;;;;;;;17.67;12.05;;;;;;;;;;5086849;28;20036;-72
2024/01/29 13:55:47;;;;;;;15.82;11.40;;;;;;;;;;5079629;28;20533;-72
2024/01/29 13:58:13;;;;;;;18.33;11.38;;;;;;;;;;5084742;28;20124;-72
2024/01/29 14:00:39;;;;;;;14.88;11.07;;;;;;;;;;5057337;28;20067;-72
2024/01/29 14:03:05;;;;;;;18.55;11.45;;;;;;;;;;5073953;28;20047;-73
2024/01/29 14:05:31;;;;;;;17.90;11.02;;;;;;;;;;5057359;28;20032;-73
2024/01/29 14:07:57;;;;;;;16.90;11.75;;;;;;;;;;5077388;28;20501;-73
2024/01/29 14:10:23;;;;;;;19.95;11.15;;;;;;;;;;5087160;28;20031;-73
2024/01/29 14:12:49;;;;;;;17.02;11.68;;;;;;;;;;5092163;28;20361;-72
2024/01/29 14:15:17;;;;;;;17.35;10.98;;;;;;;;;;5060000;28;20040;-72
2024/01/29 14:17:43;;;;;;;16.10;12.00;;;;;;;;;;5074871;28;20075;-72
2024/01/29 14:20:10;;;;;;;18.10;11.02;;;;;;;;;;5086478;28;20054;-73